Time;durP1;ratioP1;P1;durP2;ratioP2;P2;SDS_P1;SDS_P2;PMS_P1;PMS_P2;Temp;Humidity;BMP_temperature;BMP_pressure;BME280_temperature;BME280_humidity;BME280_pressure;Samples;Min_cycle;Max_cycle;Signal;HPM_P1;HPM_P2
2022/04/24 00:00:46;;;;;;;33.70;10.48;;;;;;;23.58;52.70;98084.91;4947161;28;20074;-67
2022/04/24 00:03:35;;;;;;;21.77;9.50;;;;;;;23.55;54.59;98082.53;4930414;29;20079;-67
2022/04/24 00:06:17;;;;;;;34.60;8.82;;;;;;;23.54;52.83;98077.44;4921766;29;20833;-67
2022/04/24 00:09:06;;;;;;;24.55;7.88;;;;;;;23.54;52.24;98087.97;4910130;29;20048;-67
2022/04/24 00:11:48;;;;;;;28.90;8.07;;;;;;;23.50;51.11;98097.09;4931407;29;20059;-68
2022/04/24 00:14:37;;;;;;;25.42;6.95;;;;;;;23.55;53.46;98090.44;4935441;29;20055;-68
2022/04/24 00:17:20;;;;;;;28.75;8.63;;;;;;;23.52;54.20;98095.16;4941203;29;20483;-67
2022/04/24 00:20:09;;;;;;;23.42;6.85;;;;;;;23.55;53.59;98106.22;4920752;29;20555;-67
2022/04/24 00:22:51;;;;;;;25.50;7.32;;;;;;;23.55;54.64;98098.31;4939185;29;20051;-68
2022/04/24 00:25:40;;;;;;;34.05;8.43;;;;;;;23.55;54.26;98100.13;4941315;29;20130;-68
2022/04/24 00:28:29;;;;;;;31.40;10.57;;;;;;;23.50;54.49;98100.56;4938388;29;20040;-68
2022/04/24 00:31:11;;;;;;;48.53;15.73;;;;;;;23.46;52.44;98101.78;4938499;29;20052;-68
2022/04/24 00:34:00;;;;;;;67.70;20.95;;;;;;;23.45;53.32;98104.56;4914872;29;20139;-66
2022/04/24 00:36:43;;;;;;;79.18;30.10;;;;;;;23.57;51.96;98106.06;4934881;29;20055;-68
2022/04/24 00:39:32;;;;;;;80.78;32.88;;;;;;;23.59;53.39;98117.28;4934085;29;20131;-68
2022/04/24 00:42:14;;;;;;;79.07;34.70;;;;;;;23.58;53.95;98113.81;4931249;29;20048;-67
2022/04/24 00:45:03;;;;;;;100.57;39.60;;;;;;;23.57;53.45;98108.69;4931253;29;20143;-68
2022/04/24 00:47:56;;;;;;;116.90;41.85;;;;;;;23.58;53.85;98113.00;4895641;29;20056;-66
2022/04/24 00:50:45;;;;;;;129.88;50.10;;;;;;;23.56;50.81;98120.19;4900668;29;20055;-68
2022/04/24 00:53:27;;;;;;;117.50;50.20;;;;;;;23.60;53.66;98124.22;4931190;29;20063;-67
2022/04/24 00:56:17;;;;;;;123.18;50.95;;;;;;;23.61;52.90;98123.25;4931212;29;20070;-67
2022/04/24 00:59:01;;;;;;;120.25;50.75;;;;;;;23.61;53.63;98115.34;4919022;29;20179;-68
2022/04/24 01:01:50;;;;;;;121.72;48.40;;;;;;;23.67;54.41;98112.16;4937623;28;20052;-68
2022/04/24 01:04:39;;;;;;;110.07;48.10;;;;;;;23.70;51.44;98114.50;4924601;29;20345;-64
2022/04/24 01:07:28;;;;;;;100.53;46.55;;;;;;;23.75;51.44;98121.97;4930167;29;20079;-69
2022/04/24 01:10:10;;;;;;;104.75;45.35;;;;;;;23.85;53.49;98125.41;4930437;29;20067;-68
2022/04/24 01:12:59;;;;;;;105.90;43.33;;;;;;;23.89;51.48;98132.84;4950269;29;20055;-67
2022/04/24 01:15:41;;;;;;;113.93;47.85;;;;;;;24.01;54.54;98134.34;4949566;29;20071;-68
2022/04/24 01:18:32;;;;;;;131.75;54.03;;;;;;;24.02;52.32;98138.63;4949513;29;20632;-67
2022/04/24 01:21:27;;;;;;;175.15;70.95;;;;;;;24.07;48.94;98142.63;4949633;28;20109;-66
2022/04/24 01:24:06;;;;;;;219.30;84.72;;;;;;;24.14;52.25;98135.81;4932533;29;20479;-67
2022/04/24 01:26:55;;;;;;;244.63;96.50;;;;;;;24.20;51.25;98135.22;4950106;29;20117;-68
2022/04/24 01:29:37;;;;;;;252.68;99.15;;;;;;;24.30;52.26;98131.63;4948639;28;20752;-66
2022/04/24 01:32:26;;;;;;;247.60;101.97;;;;;;;24.40;49.82;98134.22;4956426;28;20078;-66
2022/04/24 01:35:10;;;;;;;240.75;94.47;;;;;;;24.45;48.09;98136.41;4949169;28;20051;-64
2022/04/24 01:37:59;;;;;;;237.45;95.72;;;;;;;24.57;54.33;98136.06;4949597;29;20819;-68
2022/04/24 01:40:41;;;;;;;221.02;89.13;;;;;;;24.66;55.44;98132.53;4935622;29;20621;-68
2022/04/24 01:43:39;;;;;;;204.07;83.82;;;;;;;24.74;55.17;98148.44;4948955;29;20067;-68
2022/04/24 01:46:14;;;;;;;172.75;74.22;;;;;;;24.79;50.87;98148.00;4950964;28;20070;-68
2022/04/24 01:49:03;;;;;;;147.15;61.45;;;;;;;24.84;50.39;98152.81;4950111;29;20155;-67
2022/04/24 01:51:46;;;;;;;132.18;54.60;;;;;;;24.95;53.98;98160.56;4960566;28;20062;-67
2022/04/24 01:54:35;;;;;;;109.20;44.75;;;;;;;25.03;54.81;98165.91;4942667;28;20054;-67
2022/04/24 01:57:17;;;;;;;89.43;38.40;;;;;;;25.10;50.23;98174.88;4967820;28;20047;-67
2022/04/24 02:00:13;;;;;;;73.82;31.67;;;;;;;25.27;51.56;98176.69;4950479;28;20129;-69
2022/04/24 02:03:01;;;;;;;62.17;29.67;;;;;;;25.39;50.42;98180.75;4948337;29;20105;-68
2022/04/24 02:05:50;;;;;;;57.42;26.60;;;;;;;25.49;49.24;98178.03;4939174;29;20046;-68
2022/04/24 02:08:39;;;;;;;51.70;24.98;;;;;;;25.60;48.06;98182.28;4914273;29;20618;-68
2022/04/24 02:11:21;;;;;;;51.28;22.98;;;;;;;25.73;47.83;98182.72;4929101;29;20052;-67
2022/04/24 02:14:10;;;;;;;45.25;22.40;;;;;;;25.94;48.49;98183.22;4929190;29;20086;-67
2022/04/24 02:16:59;;;;;;;46.33;22.77;;;;;;;26.64;44.56;98176.00;4930343;29;20120;-67
2022/04/24 02:19:54;;;;;;;49.53;20.63;;;;;;;27.62;46.88;98175.22;4912343;29;20072;-68
2022/04/24 02:22:43;;;;;;;44.95;18.73;;;;;;;28.12;43.02;98180.31;4925358;29;20055;-70
2022/04/24 02:25:33;;;;;;;41.80;18.38;;;;;;;28.71;39.79;98183.47;4920190;29;20044;-68
2022/04/24 02:28:15;;;;;;;40.50;16.27;;;;;;;29.04;36.52;98176.19;4928736;29;20051;-67
2022/04/24 02:31:04;;;;;;;47.67;17.33;;;;;;;29.50;37.81;98182.38;4947381;29;20122;-67
2022/04/24 02:33:47;;;;;;;36.30;16.65;;;;;;;29.75;36.17;98182.16;4945428;29;20110;-68
2022/04/24 02:36:36;;;;;;;44.13;16.77;;;;;;;30.17;39.22;98187.75;4928358;29;20048;-68
2022/04/24 02:39:26;;;;;;;39.83;17.67;;;;;;;30.35;36.58;98185.56;4944423;29;20371;-67
2022/04/24 02:42:15;;;;;;;38.30;16.45;;;;;;;30.48;38.88;98178.78;4934287;29;20149;-67
2022/04/24 02:44:57;;;;;;;30.52;14.13;;;;;;;30.79;36.05;98182.09;4931116;29;20047;-66
2022/04/24 02:47:46;;;;;;;31.80;15.50;;;;;;;31.12;35.44;98175.34;4930109;29;20547;-68
2022/04/24 02:50:28;;;;;;;34.90;14.23;;;;;;;31.49;37.99;98184.09;4931464;29;20051;-68
2022/04/24 02:53:17;;;;;;;23.63;14.10;;;;;;;31.29;36.38;98181.22;4946098;29;20070;-67
2022/04/24 02:55:59;;;;;;;35.78;13.63;;;;;;;31.59;35.82;98178.44;4943934;29;20372;-66
2022/04/24 02:58:49;;;;;;;30.10;13.07;;;;;;;31.71;34.04;98185.75;4932402;29;20051;-68
2022/04/24 03:01:36;;;;;;;34.50;13.00;;;;;;;32.01;34.01;98183.72;4947553;28;20134;-68
2022/04/24 03:04:25;;;;;;;28.23;11.75;;;;;;;31.24;34.25;98182.81;4947094;29;20055;-67
2022/04/24 03:07:07;;;;;;;28.38;12.73;;;;;;;31.42;35.45;98181.38;4946823;29;20043;-68
2022/04/24 03:09:56;;;;;;;31.27;11.75;;;;;;;31.29;34.84;98183.88;4946066;29;20134;-67
2022/04/24 03:12:52;;;;;;;26.02;12.13;;;;;;;31.42;35.54;98188.53;4931698;29;20078;-66
2022/04/24 03:15:27;;;;;;;35.42;12.27;;;;;;;31.62;34.00;98188.72;4944859;29;20518;-70
2022/04/24 03:18:16;;;;;;;20.33;11.02;;;;;;;31.60;33.97;98193.41;4893505;29;20134;-69
2022/04/24 03:20:58;;;;;;;30.33;12.82;;;;;;;31.74;34.71;98190.69;4942161;28;20043;-68
2022/04/24 03:23:47;;;;;;;21.55;12.20;;;;;;;31.89;36.12;98186.09;4935512;28;20542;-69
2022/04/24 03:26:36;;;;;;;29.63;12.98;;;;;;;31.71;34.26;98188.41;4942508;29;20047;-69
2022/04/24 03:29:25;;;;;;;32.42;12.70;;;;;;;31.94;34.56;98193.50;4905098;29;20058;-68
2022/04/24 03:32:16;;;;;;;33.60;13.25;;;;;;;32.00;34.97;98197.25;4925717;29;20106;-69
2022/04/24 03:35:08;;;;;;;29.08;12.23;;;;;;;32.28;35.36;98198.91;4888147;29;20051;-68
2022/04/24 03:37:57;;;;;;;29.27;13.63;;;;;;;31.56;32.46;98203.63;4907592;29;20059;-69
2022/04/24 03:40:56;;;;;;;28.63;12.85;;;;;;;31.71;36.13;98191.06;4932633;29;20055;-68
2022/04/24 03:43:31;;;;;;;34.10;12.90;;;;;;;32.02;35.44;98197.88;4925824;29;20048;-69
2022/04/24 03:46:20;;;;;;;32.35;14.25;;;;;;;31.93;33.27;98194.53;4928484;29;20086;-68
2022/04/24 03:49:03;;;;;;;;;;;;;;;32.28;36.40;98192.75;4921234;29;20130;-70
2022/04/24 03:51:52;;;;;;;35.75;14.07;;;;;;;32.25;33.57;98191.28;4957625;28;19965;-69
2022/04/24 03:54:34;;;;;;;30.27;13.40;;;;;;;32.30;34.58;98198.72;4948101;28;20066;-70
2022/04/24 03:57:23;;;;;;;31.67;13.52;;;;;;;32.76;36.41;98190.97;4923318;29;20043;-67
2022/04/24 04:00:19;;;;;;;35.05;17.40;;;;;;;32.98;32.82;98197.84;4932340;28;20057;-69
2022/04/24 04:03:08;;;;;;;42.78;19.38;;;;;;;32.99;34.34;98194.16;4927774;29;20047;-69
2022/04/24 04:05:57;;;;;;;43.45;17.63;;;;;;;33.55;36.90;98193.06;4929382;29;20051;-69
2022/04/24 04:08:39;;;;;;;42.05;16.77;;;;;;;33.52;32.34;98194.31;4942260;29;20055;-71
2022/04/24 04:11:31;;;;;;;35.97;15.45;;;;;;;34.03;35.15;98199.88;4942813;29;20411;-71
2022/04/24 04:14:13;;;;;;;43.15;13.82;;;;;;;33.94;32.27;98197.63;4923858;28;20072;-69
2022/04/24 04:17:02;;;;;;;26.02;11.23;;;;;;;34.62;32.64;98190.94;4909864;29;20043;-69
2022/04/24 04:19:46;;;;;;;25.50;10.82;;;;;;;34.89;33.41;98189.00;4923980;29;20048;-69
2022/04/24 04:22:35;;;;;;;26.23;11.15;;;;;;;34.82;33.68;98196.25;4923036;29;20043;-69
2022/04/24 04:25:23;;;;;;;27.90;9.27;;;;;;;34.36;30.42;98199.88;4920847;29;20048;-69
2022/04/24 04:28:12;;;;;;;24.52;9.88;;;;;;;34.73;31.68;98194.84;4918551;29;20294;-71
2022/04/24 04:30:57;;;;;;;29.33;10.68;;;;;;;35.12;31.79;98191.97;4927928;29;20052;-68
2022/04/24 04:33:46;;;;;;;27.85;9.60;;;;;;;35.35;30.76;98204.88;4927667;29;20055;-69
2022/04/24 04:36:28;;;;;;;23.90;8.77;;;;;;;35.88;31.76;98201.81;4928121;29;20071;-68
2022/04/24 04:39:17;;;;;;;35.30;8.52;;;;;;;36.21;32.71;98193.50;4919248;29;20044;-69
2022/04/24 04:41:59;;;;;;;20.65;9.20;;;;;;;36.29;32.89;98198.59;4947790;29;20051;-68
2022/04/24 04:44:48;;;;;;;26.35;8.77;;;;;;;36.41;33.18;98194.09;4947107;29;20051;-68
2022/04/24 04:47:37;;;;;;;25.92;9.65;;;;;;;36.57;33.73;98200.75;4919515;29;20156;-67
2022/04/24 04:50:19;;;;;;;17.63;7.57;;;;;;;36.74;32.70;98199.94;4927669;29;20091;-69
2022/04/24 04:53:08;;;;;;;19.00;7.40;;;;;;;36.16;29.74;98193.31;4931759;29;20063;-66
2022/04/24 04:55:50;;;;;;;18.00;6.57;;;;;;;36.01;29.15;98196.34;4929591;29;20547;-68
2022/04/24 04:58:39;;;;;;;29.38;8.32;;;;;;;36.78;30.10;98201.16;4929648;29;20055;-69
2022/04/24 05:01:28;;;;;;;32.95;8.00;;;;;;;36.65;31.24;98193.22;4929750;28;20048;-69
2022/04/24 05:04:10;;;;;;;33.22;10.40;;;;;;;36.69;31.76;98188.25;4924812;29;20051;-67
2022/04/24 05:06:59;;;;;;;22.75;8.75;;;;;;;36.64;29.18;98191.56;4921918;29;20075;-69
2022/04/24 05:09:41;;;;;;;28.13;9.65;;;;;;;37.13;33.10;98184.38;4946357;28;20054;-70
2022/04/24 05:12:33;;;;;;;24.17;8.50;;;;;;;36.68;30.02;98187.44;4929848;29;20059;-70
2022/04/24 05:15:16;;;;;;;25.85;8.35;;;;;;;36.78;29.41;98178.84;4947837;29;20082;-70
2022/04/24 05:21:49;;;;;;;;;;;;;;;36.74;31.88;98181.16;4949045;29;20055;-67
2022/04/24 05:24:37;;;;;;;35.42;11.43;;;;;;;36.34;28.15;98185.31;4948807;29;19934;-70
2022/04/24 05:27:26;;;;;;;35.50;12.05;;;;;;;36.18;30.62;98177.81;4948721;29;20050;-63
2022/04/24 05:30:09;;;;;;;32.28;12.20;;;;;;;36.50;30.61;98182.03;4948628;29;20047;-68
2022/04/24 05:32:58;;;;;;;37.33;12.63;;;;;;;36.57;29.62;98179.25;4948906;29;20119;-65
2022/04/24 05:35:49;;;;;;;42.03;11.85;;;;;;;36.07;29.85;98178.56;4928710;29;20055;-66
2022/04/24 05:38:31;;;;;;;34.63;12.77;;;;;;;36.30;30.29;98178.75;4928785;29;20052;-66
2022/04/24 05:41:20;;;;;;;38.67;11.82;;;;;;;36.21;31.18;98164.81;4928393;29;20064;-66
2022/04/24 05:44:09;;;;;;;36.38;11.93;;;;;;;36.23;32.13;98169.97;4926863;29;20047;-65
2022/04/24 05:46:51;;;;;;;26.25;11.60;;;;;;;36.20;31.04;98167.72;4929643;29;20398;-65
2022/04/24 05:49:40;;;;;;;29.75;11.18;;;;;;;36.36;29.58;98164.44;4929984;29;20060;-65
2022/04/24 05:52:23;;;;;;;33.30;9.55;;;;;;;36.18;27.99;98162.53;4931502;29;20062;-66
2022/04/24 05:55:12;;;;;;;19.50;8.63;;;;;;;36.16;28.50;98161.91;4928458;29;20064;-66
2022/04/24 05:58:01;;;;;;;27.00;8.60;;;;;;;36.19;28.17;98155.34;4929017;29;20154;-67
2022/04/24 06:00:43;;;;;;;19.33;8.50;;;;;;;36.25;31.01;98154.44;4935254;28;20411;-66
2022/04/24 06:03:32;;;;;;;28.08;8.60;;;;;;;36.24;27.66;98158.19;4952105;28;20054;-66
2022/04/24 06:06:14;;;;;;;29.10;8.52;;;;;;;35.84;27.72;98147.78;4948369;29;20071;-65
2022/04/24 06:09:03;;;;;;;20.95;7.40;;;;;;;35.95;28.24;98144.41;4947951;29;20542;-67
2022/04/24 06:11:45;;;;;;;23.13;7.75;;;;;;;36.02;31.37;98134.41;4946228;28;20529;-67
2022/04/24 06:14:34;;;;;;;20.75;7.20;;;;;;;35.97;29.77;98128.91;4946786;29;20055;-66
2022/04/24 06:17:23;;;;;;;22.23;6.15;;;;;;;35.79;28.25;98128.88;4941678;29;20524;-64
2022/04/24 06:20:13;;;;;;;23.13;7.38;;;;;;;36.20;29.45;98128.28;4947204;29;20110;-64
2022/04/24 06:23:04;;;;;;;19.42;6.70;;;;;;;36.43;27.67;98125.75;4942573;29;20135;-66
2022/04/24 06:25:46;;;;;;;15.45;6.43;;;;;;;36.30;27.61;98123.22;4940331;28;20066;-64
2022/04/24 06:28:35;;;;;;;17.38;6.63;;;;;;;36.35;26.29;98122.53;4944204;29;20055;-67
2022/04/24 06:31:25;;;;;;;15.05;5.75;;;;;;;35.99;26.58;98121.47;4945722;29;20142;-66
2022/04/24 06:34:14;;;;;;;26.40;5.75;;;;;;;36.13;30.43;98118.63;4939323;29;20075;-67
2022/04/24 06:37:03;;;;;;;22.50;6.70;;;;;;;36.22;26.87;98112.78;4947333;29;20578;-66
2022/04/24 06:39:45;;;;;;;16.23;5.28;;;;;;;36.41;28.86;98110.91;4946942;29;20562;-67
2022/04/24 06:43:01;;;;;;;15.98;5.15;;;;;;;36.43;27.05;98103.44;4947384;29;20126;-67
2022/04/24 06:45:41;;;;;;;22.88;5.00;;;;;;;36.34;28.79;98104.78;4947562;29;20054;-66
2022/04/24 06:48:30;;;;;;;22.50;5.88;;;;;;;36.52;26.99;98102.09;4949228;28;20086;-66
2022/04/24 06:51:16;;;;;;;19.23;5.18;;;;;;;36.56;31.00;98103.28;4946930;28;20423;-66
2022/04/24 06:54:11;;;;;;;14.43;4.22;;;;;;;36.37;27.89;98104.34;4943502;29;20074;-65
2022/04/24 06:56:46;;;;;;;15.80;4.35;;;;;;;36.39;27.44;98104.97;4933138;29;20059;-66
2022/04/24 06:59:35;;;;;;;13.30;3.60;;;;;;;36.25;26.77;98098.09;4939464;28;20433;-66
2022/04/24 07:02:30;;;;;;;12.77;4.25;;;;;;;36.18;28.07;98091.94;4933981;29;20055;-66
2022/04/24 07:05:23;;;;;;;19.67;5.38;;;;;;;36.37;27.41;98083.69;4940648;29;20756;-64
2022/04/24 07:08:12;;;;;;;12.02;4.05;;;;;;;36.23;26.97;98086.78;4942435;29;20547;-66
2022/04/24 07:11:07;;;;;;;15.05;4.22;;;;;;;36.26;26.95;98086.31;4939673;29;20094;-65
2022/04/24 07:13:42;;;;;;;18.90;4.28;;;;;;;36.27;27.71;98080.72;4938033;29;20137;-65
2022/04/24 07:16:31;;;;;;;17.60;4.63;;;;;;;36.12;27.16;98074.88;4947500;29;20051;-65
2022/04/24 07:19:13;;;;;;;12.05;4.38;;;;;;;36.24;26.50;98078.47;4949047;28;20175;-65
2022/04/24 07:22:02;;;;;;;17.05;4.65;;;;;;;36.35;25.34;98076.91;4931486;28;20055;-65
2022/04/24 07:24:44;;;;;;;9.07;4.07;;;;;;;36.44;29.78;98067.50;4960833;28;20054;-66
2022/04/24 07:27:33;;;;;;;16.40;3.78;;;;;;;36.25;27.68;98063.19;4945046;29;20585;-64
2022/04/24 07:30:16;;;;;;;18.77;3.92;;;;;;;36.29;29.03;98059.03;4940293;29;20047;-65
2022/04/24 07:33:05;;;;;;;27.85;4.30;;;;;;;36.35;29.64;98058.94;4929094;29;20055;-65
2022/04/24 07:35:48;;;;;;;20.38;4.28;;;;;;;36.34;25.35;98059.16;4943147;29;20051;-65
2022/04/24 07:38:43;;;;;;;22.42;5.45;;;;;;;36.49;26.30;98064.94;4925360;28;20142;-64
2022/04/24 07:41:18;;;;;;;14.77;4.40;;;;;;;36.37;25.24;98058.72;4944159;29;20114;-64
2022/04/24 07:44:14;;;;;;;15.73;4.97;;;;;;;36.34;25.71;98048.44;4941123;29;20059;-65
2022/04/24 07:46:49;;;;;;;12.77;4.03;;;;;;;36.31;25.07;98051.59;4946765;28;20105;-64
2022/04/24 07:49:38;;;;;;;11.55;3.50;;;;;;;36.30;26.87;98049.94;4945566;29;20704;-64
2022/04/24 07:52:27;;;;;;;20.20;3.58;;;;;;;36.28;26.39;98041.28;4946190;28;20158;-64
2022/04/24 07:55:11;;;;;;;18.85;3.80;;;;;;;36.23;25.75;98043.84;4944339;28;20055;-65
2022/04/24 07:58:01;;;;;;;13.60;3.33;;;;;;;36.32;25.66;98045.97;4942813;29;20126;-65
2022/04/24 08:00:44;;;;;;;18.90;3.45;;;;;;;36.31;26.20;98030.94;4942901;29;20058;-65
2022/04/24 08:03:39;;;;;;;5.35;2.90;;;;;;;36.28;27.79;98034.06;4902188;29;20299;-65
2022/04/24 08:06:28;;;;;;;27.85;3.95;;;;;;;36.27;27.88;98027.06;4894025;29;20072;-65
2022/04/24 08:09:10;;;;;;;22.17;4.15;;;;;;;36.06;24.75;98027.50;4904642;29;20068;-65
2022/04/24 08:11:59;;;;;;;16.05;3.88;;;;;;;36.09;26.00;98021.66;4893995;29;20112;-65
2022/04/24 08:14:48;;;;;;;11.90;4.35;;;;;;;36.03;27.06;98006.47;4910695;29;20056;-65
2022/04/24 08:17:30;;;;;;;14.90;3.50;;;;;;;36.04;26.81;97998.22;4909140;29;20477;-65
2022/04/24 08:20:20;;;;;;;11.75;3.45;;;;;;;36.09;27.85;97999.38;4911730;29;20072;-65
2022/04/24 08:23:03;;;;;;;18.08;4.65;;;;;;;35.92;26.82;97994.63;4910971;29;20055;-65
2022/04/24 08:25:53;;;;;;;17.85;3.88;;;;;;;35.82;26.70;97993.53;4908940;29;20055;-64
2022/04/24 08:28:42;;;;;;;15.88;3.55;;;;;;;35.92;25.90;97993.84;4909067;29;20059;-65
2022/04/24 08:31:24;;;;;;;21.15;5.90;;;;;;;35.81;28.48;97975.81;4928414;29;20059;-65
2022/04/24 08:34:13;;;;;;;13.57;3.55;;;;;;;35.80;26.49;97982.22;4928759;29;20052;-65
2022/04/24 08:37:02;;;;;;;14.90;4.80;;;;;;;35.75;28.01;97988.25;4928888;29;20055;-63
2022/04/24 08:39:52;;;;;;;16.92;3.90;;;;;;;35.65;27.08;97975.34;4928952;29;20599;-63
2022/04/24 08:42:41;;;;;;;16.25;4.28;;;;;;;35.73;29.32;97962.72;4913131;29;20115;-65
2022/04/24 08:45:29;;;;;;;15.60;3.55;;;;;;;35.64;28.09;97959.47;4928714;29;20122;-65
2022/04/24 08:48:18;;;;;;;11.63;3.55;;;;;;;35.77;28.31;97945.09;4925384;29;20055;-64
2022/04/24 08:51:05;;;;;;;14.57;3.25;;;;;;;35.75;27.24;97944.53;4930957;29;20642;-64
2022/04/24 08:53:57;;;;;;;16.45;3.80;;;;;;;35.79;28.25;97951.06;4928359;29;20151;-67
2022/04/24 08:56:39;;;;;;;11.80;3.80;;;;;;;35.67;25.73;97941.09;4928719;29;20055;-64
2022/04/24 08:59:28;;;;;;;13.57;3.72;;;;;;;35.68;29.56;97933.84;4928531;29;20665;-64
2022/04/24 09:02:10;;;;;;;17.00;3.63;;;;;;;35.62;27.64;97930.19;4939053;29;20564;-64
2022/04/24 09:04:59;;;;;;;10.85;3.40;;;;;;;35.57;29.55;97927.38;4948049;29;20052;-65
2022/04/24 09:07:46;;;;;;;16.08;3.88;;;;;;;35.52;31.00;97929.09;4946530;29;20051;-65
2022/04/24 09:11:00;;;;;;;16.20;3.80;;;;;;;35.55;27.77;97923.28;4947310;29;20446;-64
2022/04/24 09:16:49;;;;;;;15.63;3.00;;;;;;;35.48;26.40;97917.19;4948172;29;20059;-65
2022/04/24 09:19:38;;;;;;;8.27;3.00;;;;;;;35.30;29.31;97915.31;4947319;29;20051;-65
2022/04/24 09:22:22;;;;;;;18.30;3.58;;;;;;;35.29;27.16;97908.31;4947530;28;20067;-66
2022/04/24 09:25:12;;;;;;;26.13;4.30;;;;;;;35.28;29.44;97907.47;4948765;29;20062;-63
2022/04/24 09:28:01;;;;;;;12.57;3.17;;;;;;;35.18;28.43;97907.16;4949653;29;20414;-66
2022/04/24 09:30:49;;;;;;;17.00;4.43;;;;;;;35.21;28.98;97893.31;4949439;29;20061;-63
2022/04/24 09:33:48;;;;;;;13.95;3.22;;;;;;;35.17;30.55;97894.00;4947708;29;20051;-64
2022/04/24 09:36:37;;;;;;;19.85;4.10;;;;;;;35.15;28.32;97882.69;4947386;29;20055;-66
2022/04/24 09:39:19;;;;;;;12.55;3.40;;;;;;;35.09;29.88;97887.06;4948206;29;20074;-64
2022/04/24 09:42:10;;;;;;;9.48;3.70;;;;;;;35.07;29.44;97872.25;4948719;28;20055;-64
2022/04/24 09:44:57;;;;;;;12.32;3.35;;;;;;;35.01;31.11;97875.81;4949178;29;20365;-65
2022/04/24 09:48:12;;;;;;;;;;;;;;;34.93;29.15;97866.22;4948702;29;20051;-64
2022/04/24 09:50:55;;;;;;;11.13;3.20;;;;;;;34.98;31.41;97862.88;4949365;28;19934;-66
2022/04/24 09:53:47;;;;;;;13.35;3.58;;;;;;;34.91;29.44;97858.41;4948219;29;20063;-68
2022/04/24 09:56:38;;;;;;;18.33;3.38;;;;;;;34.87;30.02;97853.72;4947537;29;20052;-67
2022/04/24 09:59:20;;;;;;;16.08;3.70;;;;;;;34.93;30.29;97858.19;4947515;29;20130;-68
2022/04/24 10:02:17;;;;;;;16.90;4.45;;;;;;;34.98;29.63;97855.66;4948729;28;20097;-66
2022/04/24 10:05:15;;;;;;;18.67;4.50;;;;;;;34.91;30.99;97847.69;4948817;29;20055;-66
2022/04/24 10:07:51;;;;;;;19.20;4.10;;;;;;;34.98;28.61;97858.31;4949244;29;20071;-66
2022/04/24 10:10:41;;;;;;;20.30;5.38;;;;;;;34.85;29.57;97847.75;4948284;29;20534;-66
2022/04/24 10:13:31;;;;;;;15.45;4.60;;;;;;;34.79;29.28;97843.28;4947640;29;20055;-65
2022/04/24 10:16:45;;;;;;;17.25;3.63;;;;;;;34.77;29.64;97845.38;4947275;29;20142;-66
2022/04/24 10:19:46;;;;;;;19.48;4.90;;;;;;;34.59;30.68;97829.22;4945843;28;20078;-67
2022/04/24 10:22:50;;;;;;;17.35;4.13;;;;;;;34.48;30.04;97831.56;4946137;29;20047;-65
2022/04/24 10:25:37;;;;;;;14.68;4.22;;;;;;;34.44;31.23;97825.03;4948108;29;20470;-66
2022/04/24 10:28:27;;;;;;;12.32;3.97;;;;;;;34.40;31.97;97818.47;4948014;29;20117;-65
2022/04/24 10:31:16;;;;;;;17.48;4.60;;;;;;;34.39;29.19;97814.19;4947859;29;20059;-66
2022/04/24 10:34:20;;;;;;;10.02;4.15;;;;;;;34.38;30.86;97820.56;4946369;28;20118;-68
2022/04/24 10:37:09;;;;;;;9.60;4.18;;;;;;;34.46;30.37;97809.59;4934226;29;20059;-65
2022/04/24 10:40:03;;;;;;;11.90;3.65;;;;;;;34.62;28.66;97810.88;4948444;29;20051;-65
2022/04/24 10:42:52;;;;;;;9.38;4.22;;;;;;;34.59;30.79;97805.16;4947953;29;20055;-64
2022/04/24 10:45:52;;;;;;;17.58;4.55;;;;;;;34.61;29.08;97803.91;4945798;29;20153;-65
2022/04/24 10:48:34;;;;;;;13.65;3.85;;;;;;;34.70;28.52;97804.44;4945428;28;20051;-65
2022/04/24 10:51:34;;;;;;;11.68;3.92;;;;;;;34.66;29.30;97809.41;4947614;28;20065;-67
2022/04/24 10:54:17;;;;;;;12.57;4.03;;;;;;;34.59;28.35;97805.97;4945866;29;20617;-66
2022/04/24 10:57:06;;;;;;;17.65;4.13;;;;;;;34.47;29.67;97800.53;4946782;29;20059;-65
2022/04/24 10:59:55;;;;;;;16.85;3.70;;;;;;;34.44;29.55;97800.97;4947621;29;20051;-65
2022/04/24 11:02:37;;;;;;;17.45;3.58;;;;;;;34.32;31.59;97792.03;4946550;29;20134;-65
2022/04/24 11:05:26;;;;;;;13.07;3.97;;;;;;;34.16;33.38;97798.69;4946837;28;20464;-65
2022/04/24 11:08:20;;;;;;;18.10;4.05;;;;;;;34.11;31.83;97792.34;4945642;29;20051;-64
2022/04/24 11:11:13;;;;;;;16.35;4.07;;;;;;;34.00;31.89;97788.53;4944936;29;20062;-65
2022/04/24 11:13:55;;;;;;;14.70;4.80;;;;;;;34.00;31.38;97795.75;4931779;29;20175;-67
2022/04/24 11:16:52;;;;;;;14.70;5.65;;;;;;;34.01;30.45;97792.81;4946412;29;20142;-65
2022/04/24 11:19:43;;;;;;;18.75;4.25;;;;;;;33.94;30.49;97788.56;4946460;29;20063;-65
2022/04/24 11:22:25;;;;;;;12.75;4.15;;;;;;;34.01;30.13;97782.13;4946339;28;20097;-66
2022/04/24 11:25:17;;;;;;;17.00;3.92;;;;;;;33.95;30.69;97783.00;4944979;29;20075;-66
2022/04/24 11:28:12;;;;;;;16.58;5.00;;;;;;;34.00;29.75;97780.53;4945128;29;20043;-66
2022/04/24 11:30:48;;;;;;;18.70;3.65;;;;;;;34.00;32.69;97771.69;4947185;29;20051;-68
2022/04/24 11:33:38;;;;;;;11.23;3.80;;;;;;;33.87;31.88;97775.25;4941693;28;20054;-66
2022/04/24 11:36:20;;;;;;;17.50;3.90;;;;;;;33.91;30.44;97775.66;4928899;29;20122;-65
2022/04/24 11:39:15;;;;;;;17.98;5.53;;;;;;;33.94;29.99;97776.03;4946111;29;20055;-65
2022/04/24 11:42:03;;;;;;;18.10;4.28;;;;;;;33.85;31.62;97763.13;4947902;29;20075;-65
2022/04/24 11:51:10;;;;;;;23.30;3.65;;;;;;;33.70;31.30;97761.56;4948544;28;20047;-67
2022/04/24 11:54:07;;;;;;;12.75;5.25;;;;;;;33.74;31.20;97762.81;4946380;29;20695;-66
2022/04/24 11:56:56;;;;;;;8.63;3.60;;;;;;;33.67;32.82;97758.50;4947766;29;20059;-66
2022/04/24 11:59:45;;;;;;;18.08;4.93;;;;;;;33.56;31.59;97756.50;4947405;29;20054;-65
2022/04/24 12:02:41;;;;;;;18.85;4.07;;;;;;;33.44;33.80;97748.38;4946007;29;20055;-65
2022/04/24 12:05:37;;;;;;;21.77;5.35;;;;;;;33.37;31.37;97755.56;4945252;29;20062;-67
2022/04/24 12:08:13;;;;;;;11.10;4.25;;;;;;;33.23;34.29;97754.00;4945882;29;20097;-66
2022/04/24 12:11:02;;;;;;;14.65;4.57;;;;;;;33.16;32.03;97755.88;4944811;29;20043;-65
2022/04/24 12:13:44;;;;;;;14.45;4.15;;;;;;;33.12;33.16;97747.47;4945222;29;20157;-67
2022/04/24 12:16:34;;;;;;;14.38;4.65;;;;;;;33.12;31.33;97749.31;4931236;28;20126;-66
2022/04/24 12:19:18;;;;;;;11.68;3.75;;;;;;;33.17;30.74;97762.84;4945770;29;20047;-64
2022/04/24 12:22:16;;;;;;;11.35;4.53;;;;;;;33.29;31.40;97753.16;4946376;29;20059;-65
2022/04/24 12:24:51;;;;;;;13.45;4.07;;;;;;;33.20;33.43;97749.91;4944396;28;20055;-64
2022/04/24 12:27:55;;;;;;;16.67;4.40;;;;;;;33.02;32.86;97749.78;4946568;28;20416;-64
2022/04/24 12:30:45;;;;;;;23.23;4.10;;;;;;;32.98;32.00;97744.03;4945372;28;20479;-63
2022/04/24 12:33:28;;;;;;;27.60;5.57;;;;;;;32.93;33.02;97749.19;4945021;28;20051;-62
2022/04/24 12:36:19;;;;;;;19.73;4.75;;;;;;;32.85;33.64;97751.25;4946089;28;20375;-64
2022/04/24 12:39:06;;;;;;;20.38;4.70;;;;;;;32.74;32.45;97750.06;4945430;29;20047;-62
2022/04/24 12:41:55;;;;;;;25.20;4.88;;;;;;;32.77;33.15;97757.66;4940702;29;20383;-67
2022/04/24 12:44:37;;;;;;;18.55;5.68;;;;;;;32.71;33.73;97757.66;4945064;29;20171;-64
2022/04/24 12:47:27;;;;;;;24.38;5.13;;;;;;;32.59;33.44;97754.78;4947044;29;20538;-62
2022/04/24 12:50:09;;;;;;;20.20;5.28;;;;;;;32.52;34.15;97751.31;4947205;29;20051;-64
2022/04/24 12:52:59;;;;;;;18.17;5.28;;;;;;;32.41;33.96;97752.75;4929670;29;20131;-64
2022/04/24 12:55:56;;;;;;;16.53;5.24;;;;;;;32.38;33.78;97752.34;4850270;28;10000570;-65
2022/04/24 12:58:45;;;;;;;22.42;5.30;;;;;;;32.26;35.12;97755.63;4932294;29;20334;-65
2022/04/24 13:01:33;;;;;;;20.77;5.82;;;;;;;32.18;35.90;97758.50;4953476;28;20828;-64
2022/04/24 13:04:35;;;;;;;21.15;5.97;;;;;;;32.04;36.59;97754.19;4924855;29;20054;-63
2022/04/24 13:07:25;;;;;;;20.75;5.00;;;;;;;31.92;33.56;97766.50;4919037;29;20059;-65
2022/04/24 13:10:07;;;;;;;23.33;6.18;;;;;;;31.85;33.87;97768.31;4927568;29;20743;-64